createdAt,value
2017-12-10T00:02:25.363Z,9.93
2017-12-10T00:04:52.113Z,10.05
2017-12-10T00:07:18.855Z,9.52
2017-12-10T00:09:45.595Z,9.05
2017-12-10T00:12:12.350Z,11.02
2017-12-10T00:14:39.129Z,9.30
2017-12-10T00:17:05.884Z,10.50
2017-12-10T00:19:32.618Z,10.13
2017-12-10T00:21:59.359Z,9.00
2017-12-10T00:24:26.074Z,10.50
2017-12-10T00:26:52.821Z,11.57
2017-12-10T00:29:19.589Z,11.18
2017-12-10T00:31:46.315Z,12.65
2017-12-10T00:34:13.089Z,12.70
2017-12-10T00:36:39.819Z,12.30
2017-12-10T00:39:06.550Z,14.07
2017-12-10T00:41:33.300Z,10.65
2017-12-10T00:44:00.038Z,12.40
2017-12-10T00:46:26.766Z,10.82
2017-12-10T00:48:53.568Z,13.50
2017-12-10T00:51:20.315Z,13.25
2017-12-10T00:53:47.055Z,11.90
2017-12-10T00:56:13.806Z,11.80
2017-12-10T00:58:40.545Z,13.05
2017-12-10T01:01:07.288Z,11.55
2017-12-10T01:03:34.037Z,7.87
2017-12-10T01:06:00.797Z,12.82
2017-12-10T01:08:27.502Z,12.50
2017-12-10T01:10:54.255Z,12.55
2017-12-10T01:13:20.999Z,10.23
2017-12-10T01:15:47.724Z,12.25
2017-12-10T01:18:14.473Z,11.10
2017-12-10T01:20:41.230Z,9.25
2017-12-10T01:23:07.997Z,12.63
2017-12-10T01:25:34.806Z,9.02
2017-12-10T01:28:01.542Z,10.60
2017-12-10T01:30:28.281Z,20.42
2017-12-10T01:32:55.060Z,7.40
2017-12-10T01:35:21.771Z,11.98
2017-12-10T01:37:48.546Z,10.27
2017-12-10T01:40:15.290Z,10.90
2017-12-10T01:42:42.027Z,11.30
2017-12-10T01:45:08.759Z,11.27
2017-12-10T01:47:35.518Z,9.60
2017-12-10T01:50:02.260Z,16.60
2017-12-10T01:52:29.027Z,11.80
2017-12-10T01:54:55.774Z,10.45
2017-12-10T01:57:22.525Z,12.95
2017-12-10T01:59:49.283Z,8.13
2017-12-10T02:02:15.997Z,11.07
2017-12-10T02:04:42.756Z,10.20
2017-12-10T02:07:09.497Z,9.80
2017-12-10T02:09:36.253Z,9.70
2017-12-10T02:12:02.978Z,10.98
2017-12-10T02:14:29.729Z,15.63
2017-12-10T02:16:56.489Z,9.82
2017-12-10T02:19:23.222Z,8.18
2017-12-10T02:21:49.945Z,14.07
2017-12-10T02:24:16.722Z,8.18
2017-12-10T02:26:43.454Z,9.27
2017-12-10T02:29:10.186Z,9.73
2017-12-10T02:31:36.945Z,9.43
2017-12-10T02:34:03.702Z,9.90
2017-12-10T02:36:30.446Z,10.38
2017-12-10T02:38:57.186Z,7.93
2017-12-10T02:41:23.923Z,9.10
2017-12-10T02:43:50.671Z,13.68
2017-12-10T02:46:17.455Z,8.10
2017-12-10T02:48:44.185Z,10.88
2017-12-10T02:51:10.925Z,8.20
2017-12-10T02:53:37.676Z,8.50
2017-12-10T02:56:04.410Z,11.12
2017-12-10T02:58:31.155Z,9.13
2017-12-10T03:00:57.913Z,11.18
2017-12-10T03:03:24.639Z,8.88
2017-12-10T03:05:51.360Z,8.65
2017-12-10T03:08:18.105Z,9.07
2017-12-10T03:10:45.665Z,8.40
2017-12-10T03:13:12.407Z,9.52
2017-12-10T03:15:39.153Z,8.30
2017-12-10T03:18:05.891Z,7.53
2017-12-10T03:20:32.645Z,10.60
2017-12-10T03:22:59.413Z,9.15
2017-12-10T03:25:26.145Z,9.45
2017-12-10T03:27:52.901Z,8.93
2017-12-10T03:30:19.665Z,10.88
2017-12-10T03:32:46.409Z,10.02
2017-12-10T03:35:13.146Z,9.95
2017-12-10T03:37:39.902Z,7.45
2017-12-10T03:40:06.637Z,7.10
2017-12-10T03:42:33.374Z,8.98
2017-12-10T03:45:00.144Z,6.47
2017-12-10T03:47:26.880Z,7.40
2017-12-10T03:49:53.610Z,8.48
2017-12-10T03:52:20.364Z,9.75
2017-12-10T03:54:47.114Z,8.88
2017-12-10T03:57:13.853Z,9.80
2017-12-10T03:59:40.705Z,12.07
2017-12-10T04:02:07.454Z,8.30
2017-12-10T04:04:34.188Z,8.50
2017-12-10T04:07:00.913Z,9.05
2017-12-10T04:09:27.618Z,9.15
2017-12-10T04:11:54.345Z,7.53
2017-12-10T04:14:21.102Z,7.55
2017-12-10T04:16:47.845Z,10.20
2017-12-10T04:19:14.559Z,8.40
2017-12-10T04:21:41.295Z,7.60
2017-12-10T04:24:08.017Z,8.45
2017-12-10T04:26:34.751Z,7.65
2017-12-10T04:29:01.499Z,9.10
2017-12-10T04:31:29.044Z,9.02
2017-12-10T04:33:55.786Z,7.80
2017-12-10T04:36:22.530Z,8.70
2017-12-10T04:38:49.268Z,8.30
2017-12-10T04:41:16.004Z,8.27
2017-12-10T04:43:42.718Z,6.97
2017-12-10T04:46:09.445Z,6.18
2017-12-10T04:48:36.183Z,7.55
2017-12-10T04:51:02.919Z,8.70
2017-12-10T04:53:29.663Z,5.78
2017-12-10T04:55:56.412Z,5.12
2017-12-10T04:58:23.166Z,7.15
2017-12-10T05:00:49.897Z,9.55
2017-12-10T05:03:16.646Z,7.45
2017-12-10T05:05:43.426Z,10.13
2017-12-10T05:08:10.246Z,10.77
2017-12-10T05:10:36.979Z,11.80
2017-12-10T05:13:03.738Z,10.15
2017-12-10T05:15:30.467Z,6.90
2017-12-10T05:17:57.235Z,4.40
2017-12-10T05:20:23.989Z,5.18
2017-12-10T05:22:50.712Z,7.57
2017-12-10T05:25:17.418Z,6.32
2017-12-10T05:27:44.162Z,8.00
2017-12-10T05:30:10.901Z,5.22
2017-12-10T05:32:37.643Z,6.32
2017-12-10T05:35:04.394Z,4.78
2017-12-10T05:37:31.136Z,4.28
2017-12-10T05:39:57.883Z,5.28
2017-12-10T05:42:24.632Z,4.82
2017-12-10T05:44:51.370Z,6.87
2017-12-10T05:47:18.101Z,7.15
2017-12-10T05:49:44.843Z,6.35
2017-12-10T05:52:11.582Z,7.35
2017-12-10T05:54:38.315Z,3.97
2017-12-10T05:57:05.057Z,5.40
2017-12-10T05:59:31.791Z,7.05
2017-12-10T06:01:58.536Z,9.07
2017-12-10T06:04:25.264Z,6.80
2017-12-10T06:06:51.998Z,6.00
2017-12-10T06:09:18.734Z,8.65
2017-12-10T06:11:45.471Z,7.53
2017-12-10T06:14:12.214Z,6.68
2017-12-10T06:16:38.967Z,12.73
2017-12-10T06:19:05.728Z,6.07
2017-12-10T06:21:32.449Z,5.50
2017-12-10T06:23:59.185Z,8.05
2017-12-10T06:26:25.951Z,7.18
2017-12-10T06:28:52.679Z,7.70
2017-12-10T06:31:19.407Z,7.57
2017-12-10T06:33:46.139Z,7.00
2017-12-10T06:36:12.875Z,11.52
2017-12-10T06:38:39.607Z,8.10
2017-12-10T06:41:06.348Z,14.13
2017-12-10T06:43:33.061Z,8.55
2017-12-10T06:45:59.810Z,6.85
2017-12-10T06:48:26.544Z,8.07
2017-12-10T06:50:53.286Z,7.87
2017-12-10T06:53:20.019Z,12.43
2017-12-10T06:55:46.791Z,7.35
2017-12-10T06:58:13.553Z,14.18
2017-12-10T07:00:40.289Z,13.00
2017-12-10T07:03:07.076Z,8.65
2017-12-10T07:05:33.824Z,15.63
2017-12-10T07:08:00.555Z,11.35
2017-12-10T07:10:27.289Z,8.38
2017-12-10T07:12:54.037Z,13.55
2017-12-10T07:15:20.774Z,11.55
2017-12-10T07:17:47.513Z,6.45
2017-12-10T07:20:14.236Z,7.57
2017-12-10T07:22:40.959Z,6.85
2017-12-10T07:25:07.698Z,6.28
2017-12-10T07:27:34.433Z,7.12
2017-12-10T07:30:01.172Z,7.93
2017-12-10T07:32:27.915Z,8.93
2017-12-10T07:34:54.642Z,7.55
2017-12-10T07:37:21.379Z,9.50
2017-12-10T07:39:48.138Z,6.80
2017-12-10T07:42:14.877Z,5.82
2017-12-10T07:44:41.604Z,8.80
2017-12-10T07:47:08.342Z,6.75
2017-12-10T07:49:35.083Z,6.90
2017-12-10T07:52:01.814Z,11.38
2017-12-10T07:54:28.550Z,10.80
2017-12-10T07:56:55.295Z,7.55
2017-12-10T07:59:22.035Z,10.90
2017-12-10T08:01:48.810Z,7.60
2017-12-10T08:04:15.554Z,7.28
2017-12-10T08:06:42.294Z,7.80
2017-12-10T08:09:09.082Z,11.07
2017-12-10T08:11:35.826Z,9.48
2017-12-10T08:14:02.571Z,11.52
2017-12-10T08:16:29.338Z,10.07
2017-12-10T08:18:56.095Z,7.85
2017-12-10T08:21:22.830Z,9.82
2017-12-10T08:23:49.599Z,12.48
2017-12-10T08:26:16.347Z,15.40
2017-12-10T08:28:43.091Z,12.10
2017-12-10T08:31:09.850Z,16.33
2017-12-10T08:33:36.591Z,16.90
2017-12-10T08:36:03.338Z,10.52
2017-12-10T08:38:30.122Z,13.85
2017-12-10T08:40:56.895Z,12.73
2017-12-10T08:43:23.654Z,13.02
2017-12-10T08:45:50.418Z,15.85
2017-12-10T08:48:17.190Z,15.27
2017-12-10T08:50:43.925Z,13.43
2017-12-10T08:53:10.673Z,14.80
2017-12-10T08:55:37.411Z,13.82
2017-12-10T08:58:04.142Z,16.65
2017-12-10T09:00:30.939Z,19.50
2017-12-10T09:02:57.674Z,19.80
2017-12-10T09:05:24.443Z,23.35
2017-12-10T09:07:51.222Z,17.10
2017-12-10T09:10:17.950Z,17.90
2017-12-10T09:12:44.702Z,16.87
2017-12-10T09:15:11.470Z,18.40
2017-12-10T09:17:38.217Z,17.95
2017-12-10T09:20:04.941Z,14.55
2017-12-10T09:22:31.699Z,14.18
2017-12-10T09:24:58.448Z,14.75
2017-12-10T09:27:25.195Z,15.10
2017-12-10T09:29:51.942Z,10.10
2017-12-10T09:32:18.701Z,7.62
2017-12-10T09:34:45.433Z,8.63
2017-12-10T09:37:12.193Z,7.93
2017-12-10T09:39:38.960Z,13.13
2017-12-10T09:42:05.687Z,8.38
2017-12-10T09:44:32.432Z,9.63
2017-12-10T09:46:59.168Z,9.15
2017-12-10T09:49:25.925Z,9.77
2017-12-10T09:51:52.701Z,9.00
2017-12-10T09:54:19.531Z,6.97
2017-12-10T09:56:46.267Z,11.00
2017-12-10T09:59:13.015Z,6.95
2017-12-10T10:01:39.739Z,6.22
2017-12-10T10:04:06.489Z,8.95
2017-12-10T10:06:33.226Z,6.68
2017-12-10T10:08:59.975Z,7.10
2017-12-10T10:11:26.749Z,10.20
2017-12-10T10:13:53.506Z,10.65
2017-12-10T10:16:20.273Z,23.87
2017-12-10T10:18:47.030Z,9.10
2017-12-10T10:21:13.861Z,8.27
2017-12-10T10:23:40.626Z,7.53
2017-12-10T10:26:07.359Z,12.20
2017-12-10T10:28:34.110Z,9.45
2017-12-10T10:31:00.840Z,8.48
2017-12-10T10:33:27.590Z,11.43
2017-12-10T10:35:54.334Z,9.45
2017-12-10T10:38:21.078Z,12.00
2017-12-10T10:40:47.871Z,10.40
2017-12-10T10:43:14.649Z,9.02
2017-12-10T10:45:41.383Z,9.55
2017-12-10T10:48:08.123Z,10.10
2017-12-10T10:50:34.882Z,10.38
2017-12-10T10:53:01.618Z,11.10
2017-12-10T10:55:28.366Z,8.40
2017-12-10T10:57:55.136Z,9.30
2017-12-10T11:00:21.881Z,12.40
2017-12-10T11:02:48.618Z,8.40
2017-12-10T11:05:15.406Z,9.50
2017-12-10T11:07:42.171Z,7.95
2017-12-10T11:10:08.917Z,8.20
2017-12-10T11:12:35.701Z,11.05
2017-12-10T11:15:02.442Z,16.33
2017-12-10T11:17:29.198Z,8.23
2017-12-10T11:19:55.938Z,8.65
2017-12-10T11:22:22.683Z,9.10
2017-12-10T11:24:49.425Z,7.65
2017-12-10T11:27:16.170Z,9.90
2017-12-10T11:29:42.923Z,9.02
2017-12-10T11:32:09.689Z,6.97
2017-12-10T11:34:36.445Z,15.05
2017-12-10T11:37:03.175Z,9.43
2017-12-10T11:39:29.915Z,8.63
2017-12-10T11:41:56.697Z,7.45
2017-12-10T11:44:23.459Z,10.25
2017-12-10T11:46:50.178Z,8.02
2017-12-10T11:49:16.952Z,8.85
2017-12-10T11:51:43.737Z,10.00
2017-12-10T11:54:10.473Z,12.18
2017-12-10T11:56:37.258Z,11.35
2017-12-10T11:59:04.010Z,14.15
2017-12-10T12:01:30.749Z,11.75
2017-12-10T12:03:57.502Z,10.25
2017-12-10T12:06:24.247Z,16.87
2017-12-10T12:08:51.041Z,13.52
2017-12-10T12:11:17.815Z,13.38
2017-12-10T12:13:44.569Z,9.80
2017-12-10T12:16:11.330Z,10.43
2017-12-10T12:18:38.278Z,8.95
2017-12-10T12:21:05.752Z,10.25
2017-12-10T12:23:32.498Z,10.55
2017-12-10T12:25:59.270Z,11.18
2017-12-10T12:28:26.033Z,9.18
2017-12-10T12:30:52.778Z,8.90
2017-12-10T12:33:19.538Z,13.07
2017-12-10T12:35:46.375Z,8.77
2017-12-10T12:38:13.135Z,12.00
2017-12-10T12:40:39.904Z,11.85
2017-12-10T12:43:06.644Z,11.05
2017-12-10T12:45:33.390Z,9.60
2017-12-10T12:48:00.890Z,11.60
2017-12-10T12:50:27.707Z,9.35
2017-12-10T12:52:54.490Z,12.48
2017-12-10T12:55:21.252Z,11.12
2017-12-10T12:57:48.013Z,12.52
2017-12-10T13:00:14.780Z,11.07
2017-12-10T13:02:41.627Z,11.98
2017-12-10T13:05:08.369Z,13.13
2017-12-10T13:07:35.117Z,12.98
2017-12-10T13:10:01.887Z,15.98
2017-12-10T13:12:28.636Z,13.23
2017-12-10T13:14:55.400Z,18.70
2017-12-10T13:17:22.180Z,14.00
2017-12-10T13:19:48.954Z,10.30
2017-12-10T13:22:15.704Z,13.73
2017-12-10T13:24:42.483Z,17.90
2017-12-10T13:27:09.223Z,17.80
2017-12-10T13:29:35.980Z,15.82
2017-12-10T13:32:02.776Z,11.48
2017-12-10T13:34:29.524Z,13.73
2017-12-10T13:36:56.287Z,12.43
2017-12-10T13:39:23.041Z,13.00
2017-12-10T13:41:49.786Z,14.27
2017-12-10T13:44:16.534Z,13.75
2017-12-10T13:46:43.315Z,15.77
2017-12-10T13:49:10.035Z,12.02
2017-12-10T13:51:36.786Z,15.00
2017-12-10T13:54:03.576Z,14.97
2017-12-10T13:56:30.336Z,11.77
2017-12-10T13:58:57.076Z,13.88
2017-12-10T14:01:23.855Z,13.07
2017-12-10T14:03:50.612Z,14.98
2017-12-10T14:06:17.425Z,18.12
2017-12-10T14:08:44.175Z,12.40
2017-12-10T14:11:10.927Z,13.15
2017-12-10T14:13:37.654Z,10.83
2017-12-10T14:16:04.419Z,10.18
2017-12-10T14:18:31.186Z,13.20
2017-12-10T14:20:57.928Z,15.52
2017-12-10T14:23:24.722Z,10.75
2017-12-10T14:25:51.481Z,11.20
2017-12-10T14:28:18.265Z,13.32
2017-12-10T14:30:45.046Z,11.98
2017-12-10T14:33:11.800Z,11.45
2017-12-10T14:35:38.579Z,12.98
2017-12-10T14:38:05.336Z,11.63
2017-12-10T14:40:32.079Z,14.87
2017-12-10T14:42:58.859Z,14.68
2017-12-10T14:45:25.626Z,9.88
2017-12-10T14:47:52.400Z,13.82
2017-12-10T14:50:19.189Z,12.90
2017-12-10T14:52:45.992Z,13.23
2017-12-10T14:55:12.741Z,12.43
2017-12-10T14:57:39.487Z,17.50
2017-12-10T15:00:06.263Z,12.25
2017-12-10T15:02:32.999Z,12.80
2017-12-10T15:04:59.767Z,13.62
2017-12-10T15:07:26.503Z,13.60
2017-12-10T15:09:53.239Z,11.20
2017-12-10T15:12:19.983Z,12.23
2017-12-10T15:14:46.757Z,20.80
2017-12-10T15:17:13.541Z,9.57
2017-12-10T15:19:40.401Z,14.48
2017-12-10T15:22:07.199Z,11.98
2017-12-10T15:24:33.932Z,10.30
2017-12-10T15:27:00.691Z,9.20
2017-12-10T15:29:27.492Z,14.32
2017-12-10T15:31:54.279Z,23.60
2017-12-10T15:34:21.074Z,15.93
2017-12-10T15:36:47.830Z,18.83
2017-12-10T15:39:14.611Z,26.87
2017-12-10T15:41:41.392Z,18.00
2017-12-10T15:44:08.178Z,13.98
2017-12-10T15:46:34.938Z,14.05
2017-12-10T15:49:01.681Z,10.85
2017-12-10T15:51:28.454Z,4.72
2017-12-10T15:53:55.223Z,3.62
2017-12-10T15:56:21.991Z,4.72
2017-12-10T15:58:48.889Z,3.62
2017-12-10T16:01:15.676Z,7.37
2017-12-10T16:03:42.437Z,5.32
2017-12-10T16:06:09.238Z,4.97
2017-12-10T16:08:36.005Z,5.00
2017-12-10T16:11:02.782Z,5.28
2017-12-10T16:13:29.578Z,3.58
2017-12-10T16:15:56.337Z,4.15
2017-12-10T16:18:23.168Z,4.28
2017-12-10T16:20:49.963Z,3.62
2017-12-10T16:23:16.750Z,4.07
2017-12-10T16:25:43.554Z,2.72
2017-12-10T16:28:10.300Z,5.80
2017-12-10T16:30:37.056Z,3.62
2017-12-10T16:33:03.860Z,5.47
2017-12-10T16:35:30.633Z,3.85
2017-12-10T16:37:57.403Z,7.18
2017-12-10T16:40:24.151Z,3.42
2017-12-10T16:42:50.924Z,2.62
2017-12-10T16:45:17.677Z,2.90
2017-12-10T16:47:44.437Z,3.20
2017-12-10T16:50:11.216Z,3.60
2017-12-10T16:52:38.024Z,9.05
2017-12-10T16:55:04.797Z,2.75
2017-12-10T16:57:31.648Z,3.10
2017-12-10T16:59:58.403Z,6.33
2017-12-10T17:02:25.164Z,3.65
2017-12-10T17:04:51.965Z,2.77
2017-12-10T17:07:18.750Z,3.55
2017-12-10T17:09:45.523Z,2.53
2017-12-10T17:12:12.318Z,11.10
2017-12-10T17:14:39.114Z,2.47
2017-12-10T17:17:05.927Z,2.95
2017-12-10T17:19:32.736Z,3.87
2017-12-10T17:21:59.513Z,2.62
2017-12-10T17:24:26.296Z,1.90
2017-12-10T17:26:53.095Z,2.17
2017-12-10T17:29:19.887Z,2.80
2017-12-10T17:31:46.663Z,2.37
2017-12-10T17:34:13.433Z,2.62
2017-12-10T17:36:40.196Z,1.85
2017-12-10T17:39:06.954Z,1.50
2017-12-10T17:41:33.737Z,4.70
2017-12-10T17:44:00.507Z,1.75
2017-12-10T17:46:27.286Z,2.33
2017-12-10T17:48:54.092Z,2.53
2017-12-10T17:51:20.854Z,2.30
2017-12-10T17:53:47.629Z,1.60
2017-12-10T17:56:14.426Z,3.50
2017-12-10T17:58:41.254Z,1.95
2017-12-10T18:01:08.003Z,2.47
2017-12-10T18:03:34.826Z,2.20
2017-12-10T18:06:01.591Z,2.60
2017-12-10T18:08:28.386Z,1.93
2017-12-10T18:10:55.202Z,5.70
2017-12-10T18:13:21.999Z,2.65
2017-12-10T18:15:48.763Z,2.83
2017-12-10T18:18:15.526Z,4.32
2017-12-10T18:20:42.306Z,1.42
2017-12-10T18:23:09.069Z,2.85
2017-12-10T18:25:35.845Z,2.40
2017-12-10T18:28:02.651Z,1.83
2017-12-10T18:30:29.473Z,2.87
2017-12-10T18:32:56.258Z,1.37
2017-12-10T18:35:23.069Z,18.37
2017-12-10T18:37:49.860Z,3.93
2017-12-10T18:40:16.628Z,1.65
2017-12-10T18:42:43.405Z,3.90
2017-12-10T18:45:10.198Z,2.60
2017-12-10T18:47:36.981Z,2.83
2017-12-10T18:50:03.727Z,2.35
2017-12-10T18:52:30.499Z,1.75
2017-12-10T18:54:57.312Z,3.55
2017-12-10T18:57:24.080Z,2.33
2017-12-10T18:59:50.880Z,2.75
2017-12-10T19:02:17.662Z,3.65
2017-12-10T19:04:44.454Z,2.78
2017-12-10T19:07:12.625Z,3.00
2017-12-10T19:09:40.059Z,2.10
2017-12-10T19:12:06.853Z,3.60
2017-12-10T19:14:34.741Z,3.72
2017-12-10T19:17:01.669Z,2.80
2017-12-10T19:19:28.491Z,3.75
2017-12-10T19:21:55.276Z,2.05
2017-12-10T19:24:22.081Z,2.65
2017-12-10T19:26:49.138Z,2.50
2017-12-10T19:29:16.000Z,2.50
2017-12-10T19:31:42.781Z,4.03
2017-12-10T19:34:09.595Z,3.25
2017-12-10T19:36:36.372Z,2.37
2017-12-10T19:39:03.210Z,2.90
2017-12-10T19:41:29.997Z,4.53
2017-12-10T19:43:56.790Z,4.70
2017-12-10T19:46:23.562Z,2.78
2017-12-10T19:48:50.313Z,2.22
2017-12-10T19:51:17.352Z,2.75
2017-12-10T19:53:44.162Z,2.40
2017-12-10T19:56:10.975Z,2.50
2017-12-10T19:58:37.760Z,3.05
2017-12-10T20:01:04.559Z,2.15
2017-12-10T20:03:31.364Z,2.67
2017-12-10T20:05:58.137Z,2.80
2017-12-10T20:08:31.478Z,4.28
2017-12-10T20:10:58.762Z,5.25
2017-12-10T20:13:25.524Z,4.07
2017-12-10T20:15:52.309Z,7.10
2017-12-10T20:18:19.100Z,6.72
2017-12-10T20:20:45.886Z,5.40
2017-12-10T20:23:12.883Z,6.20
2017-12-10T20:25:39.631Z,7.33
2017-12-10T20:28:06.355Z,6.70
2017-12-10T20:30:33.156Z,5.27
2017-12-10T20:32:59.909Z,6.30
2017-12-10T20:35:27.221Z,2.45
2017-12-10T20:37:54.559Z,3.83
2017-12-10T20:40:21.335Z,3.75
2017-12-10T20:42:48.137Z,3.15
2017-12-10T20:45:15.010Z,6.20
2017-12-10T20:47:41.766Z,3.05
2017-12-10T20:50:08.662Z,4.40
2017-12-10T20:52:35.461Z,3.00
2017-12-10T20:55:02.575Z,2.95
2017-12-10T20:57:29.348Z,2.33
2017-12-10T20:59:56.183Z,2.92
2017-12-10T21:02:23.040Z,2.85
2017-12-10T21:04:49.823Z,1.65
2017-12-10T21:07:17.063Z,2.20
2017-12-10T21:09:43.922Z,2.20
2017-12-10T21:12:10.725Z,2.70
2017-12-10T21:14:37.537Z,2.50
2017-12-10T21:17:04.816Z,2.47
2017-12-10T21:19:31.750Z,2.70
2017-12-10T21:21:58.521Z,2.92
2017-12-10T21:24:25.329Z,2.40
2017-12-10T21:26:52.144Z,2.90
2017-12-10T21:29:18.937Z,2.50
2017-12-10T21:31:45.662Z,2.90
2017-12-10T21:34:12.432Z,2.87
2017-12-10T21:36:39.322Z,3.20
2017-12-10T21:39:06.126Z,2.93
2017-12-10T21:41:33.777Z,2.90
2017-12-10T21:44:00.554Z,3.20
2017-12-10T21:46:27.306Z,2.90
2017-12-10T21:48:54.049Z,2.80
2017-12-10T21:51:20.808Z,2.60
2017-12-10T21:53:47.596Z,2.70
2017-12-10T21:56:14.341Z,3.15
2017-12-10T21:58:41.110Z,3.33
2017-12-10T22:01:07.873Z,4.43
2017-12-10T22:03:34.653Z,2.53
2017-12-10T22:06:01.402Z,3.72
2017-12-10T22:08:28.168Z,2.97
2017-12-10T22:10:54.896Z,3.07
2017-12-10T22:13:21.661Z,2.15
2017-12-10T22:15:48.416Z,2.43
2017-12-10T22:18:15.197Z,3.70
2017-12-10T22:20:41.950Z,2.87
2017-12-10T22:23:08.721Z,3.00
2017-12-10T22:25:35.497Z,2.47
2017-12-10T22:28:02.329Z,4.25
2017-12-10T22:30:29.097Z,2.90
2017-12-10T22:32:55.842Z,2.87
2017-12-10T22:35:22.635Z,2.60
2017-12-10T22:37:49.386Z,10.47
2017-12-10T22:40:16.147Z,2.47
2017-12-10T22:42:42.904Z,2.60
2017-12-10T22:45:09.646Z,2.33
2017-12-10T22:47:36.388Z,2.43
2017-12-10T22:50:03.132Z,4.30
2017-12-10T22:52:29.870Z,2.47
2017-12-10T22:54:56.592Z,1.97
2017-12-10T22:57:23.342Z,2.27
2017-12-10T22:59:50.063Z,5.10
2017-12-10T23:02:16.838Z,2.23
2017-12-10T23:04:43.625Z,6.50
2017-12-10T23:07:10.434Z,2.83
2017-12-10T23:09:37.148Z,2.67
2017-12-10T23:12:03.941Z,5.10
2017-12-10T23:14:36.486Z,2.43
2017-12-10T23:17:03.216Z,2.97
2017-12-10T23:19:30.028Z,2.50
2017-12-10T23:21:56.753Z,3.20
2017-12-10T23:24:23.476Z,2.20
2017-12-10T23:26:50.222Z,2.83
2017-12-10T23:29:16.977Z,3.10
2017-12-10T23:31:43.716Z,3.53
2017-12-10T23:34:10.473Z,4.23
2017-12-10T23:36:37.218Z,6.23
2017-12-10T23:39:03.953Z,2.63
2017-12-10T23:41:30.709Z,3.10
2017-12-10T23:43:57.476Z,4.40
2017-12-10T23:46:24.212Z,4.60
2017-12-10T23:48:50.967Z,3.17
2017-12-10T23:51:17.716Z,3.23
2017-12-10T23:53:44.556Z,4.57
2017-12-10T23:56:11.313Z,3.70
2017-12-10T23:58:38.066Z,3.93
